Time;durP1;ratioP1;P1;durP2;ratioP2;P2;SDS_P1;SDS_P2;PMS_P1;PMS_P2;Temp;Humidity;BMP_temperature;BMP_pressure;BME280_temperature;BME280_humidity;BME280_pressure;Samples;Min_cycle;Max_cycle;Signal;HPM_P1;HPM_P2
2023/05/24 00:10:03;;;;;;;;;;;;;;;14.63;100.00;97904.91;18545897;32;19976;-54
2023/05/24 00:20:09;;;;;;;;;;;;;;;14.48;100.00;97908.59;18560173;32;20295;-54
2023/05/24 00:30:11;;;;;;;;;;;;;;;14.31;100.00;97907.13;18567086;31;19952;-55
2023/05/24 00:40:16;;;;;;;;;;;;;;;14.19;100.00;97904.78;18571952;32;19993;-56
2023/05/24 00:50:20;;;;;;;;;;;;;;;14.10;100.00;97901.09;18557138;32;19956;-53
2023/05/24 01:00:23;;;;;;;;;;;;;;;13.96;100.00;97898.22;18570500;32;19961;-53
2023/05/24 01:10:35;;;;;;;;;;;;;;;13.83;100.00;97907.06;18569516;32;19996;-55
2023/05/24 01:20:38;;;;;;;;;;;;;;;13.69;100.00;97909.59;18569159;32;20295;-53
2023/05/24 01:30:43;;;;;;;;;;;;;;;13.66;100.00;97897.41;18553852;31;19976;-55
2023/05/24 01:40:49;;;;;;;;;;;;;;;13.45;100.00;97895.94;18567568;32;20384;-54
2023/05/24 01:50:56;;;;;;;;;;;;;;;13.30;100.00;97891.41;18567182;31;20324;-54
2023/05/24 02:01:00;;;;;;;;;;;;;;;13.21;100.00;97900.16;18566877;32;19975;-51
2023/05/24 02:11:03;;;;;;;;;;;;;;;13.15;100.00;97908.59;18552072;32;19997;-55
2023/05/24 02:21:05;;;;;;;;;;;;;;;13.09;100.00;97898.84;18565490;32;20407;-55
2023/05/24 02:31:08;;;;;;;;;;;;;;;13.05;100.00;97896.72;18564714;31;19956;-54
2023/05/24 02:41:16;;;;;;;;;;;;;;;12.96;100.00;97892.97;18564078;32;19948;-54
2023/05/24 02:51:19;;;;;;;;;;;;;;;12.92;100.00;97883.75;18562943;32;19957;-55
2023/05/24 03:01:22;;;;;;;;;;;;;;;12.82;100.00;97881.09;18562979;32;19956;-55
2023/05/24 03:11:26;;;;;;;;;;;;;;;12.75;100.00;97870.56;18562464;32;20012;-56
2023/05/24 03:21:32;;;;;;;;;;;;;;;12.63;100.00;97861.94;18562088;32;20008;-55
2023/05/24 03:31:35;;;;;;;;;;;;;;;12.53;100.00;97866.31;18546656;32;19953;-55
2023/05/24 03:41:38;;;;;;;;;;;;;;;12.51;100.00;97859.53;18560978;32;19953;-54
2023/05/24 03:51:41;;;;;;;;;;;;;;;12.51;100.00;97862.25;18560927;32;19963;-54
2023/05/24 04:01:45;;;;;;;;;;;;;;;12.53;100.00;97868.22;18565437;32;19957;-55
2023/05/24 04:11:48;;;;;;;;;;;;;;;12.46;100.00;97873.94;18573402;32;19953;-51
2023/05/24 04:21:51;;;;;;;;;;;;;;;12.48;100.00;97885.31;18558334;32;19961;-55
2023/05/24 04:31:55;;;;;;;;;;;;;;;12.51;100.00;97887.50;18571798;32;19941;-55
2023/05/24 04:41:59;;;;;;;;;;;;;;;12.41;100.00;97889.41;18557551;32;19989;-53
2023/05/24 04:52:02;;;;;;;;;;;;;;;12.32;100.00;97897.28;18570989;32;20087;-54
2023/05/24 05:02:05;;;;;;;;;;;;;;;12.28;100.00;97897.06;18570465;32;19965;-56
2023/05/24 05:12:08;;;;;;;;;;;;;;;12.25;100.00;97900.31;18569018;32;19967;-55
2023/05/24 05:22:11;;;;;;;;;;;;;;;12.24;100.00;97912.25;18569414;32;19960;-55
2023/05/24 05:32:14;;;;;;;;;;;;;;;12.24;100.00;97914.13;18568082;32;19952;-55
2023/05/24 05:42:19;;;;;;;;;;;;;;;12.24;100.00;97914.13;18567883;32;20009;-56
2023/05/24 05:52:23;;;;;;;;;;;;;;;12.36;100.00;97915.47;18567162;32;20005;-55
2023/05/24 06:02:26;;;;;;;;;;;;;;;12.71;100.00;97923.75;18566820;32;19997;-56
2023/05/24 06:12:30;;;;;;;;;;;;;;;12.93;100.00;97922.56;18565946;32;20276;-57
2023/05/24 06:22:37;;;;;;;;;;;;;;;13.06;100.00;97932.84;18565230;31;19971;-56
2023/05/24 06:32:41;;;;;;;;;;;;;;;13.10;100.00;97928.47;18564496;32;19945;-58
2023/05/24 06:42:46;;;;;;;;;;;;;;;13.16;100.00;97938.19;18549756;32;19991;-57
2023/05/24 06:52:51;;;;;;;;;;;;;;;13.12;100.00;97945.28;18563500;32;19971;-57
2023/05/24 07:02:57;;;;;;;;;;;;;;;13.05;100.00;97961.06;18536067;32;19961;-58
2023/05/24 07:13:01;;;;;;;;;;;;;;;12.87;100.00;97976.88;18548598;32;19956;-57
2023/05/24 07:23:05;;;;;;;;;;;;;;;12.90;100.00;97966.56;18561906;32;19979;-55
2023/05/24 07:33:08;;;;;;;;;;;;;;;12.96;100.00;97985.25;18560895;32;20312;-57
2023/05/24 07:43:11;;;;;;;;;;;;;;;12.92;100.00;97984.16;18561041;32;19999;-57
2023/05/24 07:53:18;;;;;;;;;;;;;;;13.07;100.00;97987.94;18560895;32;20009;-55
2023/05/24 08:03:24;;;;;;;;;;;;;;;13.04;100.00;97989.28;18560916;32;20387;-56
2023/05/24 08:13:28;;;;;;;;;;;;;;;13.27;100.00;97990.53;18546661;32;19967;-52
2023/05/24 08:23:36;;;;;;;;;;;;;;;13.60;100.00;97979.25;18560007;32;19961;-56
2023/05/24 08:33:39;;;;;;;;;;;;;;;13.85;100.00;97992.66;18519099;32;19952;-55
2023/05/24 08:43:43;;;;;;;;;;;;;;;13.81;100.00;97991.56;18559416;32;19968;-53
2023/05/24 08:53:49;;;;;;;;;;;;;;;13.59;100.00;97999.34;18569846;32;20000;-55
2023/05/24 09:03:52;;;;;;;;;;;;;;;13.43;100.00;98010.31;18556274;31;19952;-55
2023/05/24 09:13:57;;;;;;;;;;;;;;;13.35;100.00;98006.28;18555239;32;20012;-55
2023/05/24 09:24:08;;;;;;;;;;;;;;;13.26;100.00;98012.56;18569304;32;20413;-55
2023/05/24 09:34:15;;;;;;;;;;;;;;;13.23;100.00;98013.91;18568475;32;19968;-57
2023/05/24 09:44:18;;;;;;;;;;;;;;;13.30;100.00;98024.47;18568114;32;20344;-55
2023/05/24 09:54:20;;;;;;;;;;;;;;;13.36;100.00;98017.94;18540221;32;19956;-56
2023/05/24 10:04:31;;;;;;;;;;;;;;;13.48;100.00;98026.56;18552361;32;19953;-54
2023/05/24 10:14:37;;;;;;;;;;;;;;;13.39;100.00;98031.00;18566376;32;20048;-55
2023/05/24 10:24:44;;;;;;;;;;;;;;;13.26;100.00;98045.94;18550262;32;19994;-57
2023/05/24 10:34:51;;;;;;;;;;;;;;;13.10;100.00;98052.53;18564658;32;20012;-56
2023/05/24 10:44:56;;;;;;;;;;;;;;;12.79;100.00;98045.28;18564242;32;19961;-56
2023/05/24 10:55:03;;;;;;;;;;;;;;;12.91;100.00;98045.00;18549175;31;19994;-56
2023/05/24 11:05:06;;;;;;;;;;;;;;;13.04;100.00;98049.00;18563389;32;19956;-56
2023/05/24 11:15:11;;;;;;;;;;;;;;;13.06;100.00;98052.28;18548018;32;20359;-55
2023/05/24 11:25:15;;;;;;;;;;;;;;;13.18;100.00;98041.91;18547677;32;20268;-55
2023/05/24 11:35:21;;;;;;;;;;;;;;;13.45;100.00;98039.91;18546829;32;20012;-55
2023/05/24 11:45:25;;;;;;;;;;;;;;;13.59;100.00;98037.41;18561374;32;20340;-56
2023/05/24 11:55:31;;;;;;;;;;;;;;;13.86;100.00;98020.66;18560695;32;20311;-56
2023/05/24 12:05:37;;;;;;;;;;;;;;;14.09;100.00;98030.00;18560691;32;20386;-56
2023/05/24 12:15:42;;;;;;;;;;;;;;;14.30;100.00;98021.66;18533396;32;19957;-55
2023/05/24 12:25:46;;;;;;;;;;;;;;;14.65;100.00;98017.00;18554204;32;19949;-55
2023/05/24 12:35:49;;;;;;;;;;;;;;;14.76;100.00;98021.25;18572019;32;19960;-56
2023/05/24 12:45:52;;;;;;;;;;;;;;;15.24;100.00;98010.31;18571418;31;19971;-56
2023/05/24 12:55:55;;;;;;;;;;;;;;;16.25;100.00;98002.88;18571171;32;19998;-56
2023/05/24 13:05:58;;;;;;;;;;;;;;;17.49;100.00;97995.03;18570859;32;19956;-57
2023/05/24 13:16:04;;;;;;;;;;;;;;;17.68;100.00;97988.56;18569745;32;19952;-56
2023/05/24 13:26:08;;;;;;;;;;;;;;;17.64;100.00;97980.19;18569745;32;20297;-56
2023/05/24 13:36:12;;;;;;;;;;;;;;;17.22;100.00;97966.63;18567600;31;20020;-56
2023/05/24 13:46:15;;;;;;;;;;;;;;;18.06;100.00;97956.25;18553747;32;20253;-56
2023/05/24 13:56:19;;;;;;;;;;;;;;;19.17;100.00;97943.69;18567153;32;19997;-56
2023/05/24 14:06:22;;;;;;;;;;;;;;;19.35;99.30;97943.69;18566809;32;19959;-57
2023/05/24 14:16:25;;;;;;;;;;;;;;;19.36;100.00;97942.56;18565683;32;20322;-57
2023/05/24 14:26:29;;;;;;;;;;;;;;;19.54;99.97;97946.13;18565276;31;19948;-57
2023/05/24 14:36:34;;;;;;;;;;;;;;;19.26;100.00;97947.22;18564508;32;19956;-57
2023/05/24 14:46:39;;;;;;;;;;;;;;;19.16;99.29;97933.84;18563423;32;19972;-57
2023/05/24 14:56:43;;;;;;;;;;;;;;;19.36;100.00;97937.06;18563564;32;19956;-57
2023/05/24 15:06:47;;;;;;;;;;;;;;;19.58;97.87;97936.13;18563228;32;19948;-56
2023/05/24 15:16:51;;;;;;;;;;;;;;;19.85;87.66;97940.50;18548173;32;19988;-56
2023/05/24 15:26:54;;;;;;;;;;;;;;;19.58;100.00;97923.22;18547919;31;19989;-57
2023/05/24 15:36:57;;;;;;;;;;;;;;;19.03;100.00;97910.91;18561852;32;19963;-57
2023/05/24 15:47:06;;;;;;;;;;;;;;;18.53;99.07;97894.81;18548416;32;19965;-56
2023/05/24 15:57:11;;;;;;;;;;;;;;;18.31;100.00;97880.06;18565217;32;20320;-57
2023/05/24 16:07:14;;;;;;;;;;;;;;;18.24;100.00;97879.69;18574241;32;20000;-57
2023/05/24 16:17:21;;;;;;;;;;;;;;;18.05;100.00;97877.22;18559118;32;20328;-57
2023/05/24 16:27:24;;;;;;;;;;;;;;;18.01;100.00;97871.56;18572656;31;19981;-57
2023/05/24 16:37:28;;;;;;;;;;;;;;;18.04;100.00;97873.66;18545102;32;20024;-57
2023/05/24 16:47:33;;;;;;;;;;;;;;;18.27;100.00;97866.19;18556898;32;20328;-57
2023/05/24 16:57:38;;;;;;;;;;;;;;;18.82;98.67;97871.53;18571217;32;19985;-55
2023/05/24 17:07:44;;;;;;;;;;;;;;;19.00;95.56;97875.13;18569547;32;19948;-56
2023/05/24 17:17:47;;;;;;;;;;;;;;;18.78;100.00;97866.66;18569606;32;20036;-57
2023/05/24 17:27:51;;;;;;;;;;;;;;;17.68;100.00;97849.13;18568977;31;19953;-56
2023/05/24 17:37:55;;;;;;;;;;;;;;;16.73;100.00;97864.38;18568645;32;19983;-55
2023/05/24 17:48:00;;;;;;;;;;;;;;;16.12;100.00;97864.50;18554090;32;19964;-55
2023/05/24 17:58:06;;;;;;;;;;;;;;;15.68;100.00;97866.63;18567335;32;19996;-57
2023/05/24 18:08:13;;;;;;;;;;;;;;;15.24;100.00;97862.44;18566764;31;19967;-57
2023/05/24 18:18:17;;;;;;;;;;;;;;;14.81;100.00;97879.63;18565861;32;20233;-56
2023/05/24 18:28:23;;;;;;;;;;;;;;;14.64;100.00;97895.66;18565510;31;19958;-56
2023/05/24 18:38:26;;;;;;;;;;;;;;;14.24;100.00;97891.16;18565110;32;19979;-57
2023/05/24 18:48:30;;;;;;;;;;;;;;;13.87;100.00;97898.03;18549701;32;19952;-57
2023/05/24 18:58:34;;;;;;;;;;;;;;;13.45;100.00;97901.38;18563677;32;20043;-56
2023/05/24 19:08:38;;;;;;;;;;;;;;;13.15;100.00;97903.19;18548682;32;20005;-57
2023/05/24 19:18:42;;;;;;;;;;;;;;;12.99;100.00;97908.72;18549047;32;19957;-56
2023/05/24 19:28:50;;;;;;;;;;;;;;;12.93;100.00;97915.25;18561516;31;19976;-57
2023/05/24 19:38:54;;;;;;;;;;;;;;;12.98;100.00;97928.00;18548811;32;20309;-57
2023/05/24 19:48:59;;;;;;;;;;;;;;;12.93;100.00;97926.09;18561125;32;19993;-57
2023/05/24 19:59:05;;;;;;;;;;;;;;;12.87;100.00;97936.16;18560860;31;19948;-57
2023/05/24 20:09:10;;;;;;;;;;;;;;;12.86;100.00;97939.97;18560620;32;19956;-57
2023/05/24 20:19:13;;;;;;;;;;;;;;;12.81;100.00;97937.28;18533609;32;19965;-57
2023/05/24 20:29:15;;;;;;;;;;;;;;;12.74;100.00;97925.91;18559804;31;20000;-57
2023/05/24 20:39:18;;;;;;;;;;;;;;;12.69;100.00;97923.22;18559764;32;19972;-57
2023/05/24 20:49:21;;;;;;;;;;;;;;;12.63;100.00;97930.56;18570658;32;20356;-57
2023/05/24 20:59:25;;;;;;;;;;;;;;;12.54;100.00;97929.53;18556817;32;19983;-57
2023/05/24 21:09:28;;;;;;;;;;;;;;;12.44;100.00;97929.53;18570767;32;20349;-56
2023/05/24 21:19:31;;;;;;;;;;;;;;;12.37;100.00;97935.25;18569652;32;20257;-56
2023/05/24 21:29:36;;;;;;;;;;;;;;;12.33;100.00;97931.47;18568869;31;20037;-57
2023/05/24 21:39:42;;;;;;;;;;;;;;;12.20;100.00;97936.37;18568722;32;19997;-57
2023/05/24 21:49:45;;;;;;;;;;;;;;;12.10;100.00;97933.69;18568046;31;20009;-56
2023/05/24 21:59:48;;;;;;;;;;;;;;;11.99;100.00;97932.88;18567133;32;20006;-56
2023/05/24 22:09:51;;;;;;;;;;;;;;;11.79;100.00;97930.97;18566759;32;19979;-55
2023/05/24 22:19:55;;;;;;;;;;;;;;;11.49;100.00;97934.47;18566226;32;19949;-57
2023/05/24 22:29:58;;;;;;;;;;;;;;;11.15;100.00;97930.34;18551335;32;20008;-55
2023/05/24 22:40:01;;;;;;;;;;;;;;;10.82;100.00;97935.13;18564778;32;19949;-57
2023/05/24 22:50:05;;;;;;;;;;;;;;;10.61;100.00;97936.16;18549641;32;19964;-55
2023/05/24 23:00:10;;;;;;;;;;;;;;;10.30;100.00;97933.25;18549712;32;20337;-56
2023/05/24 23:10:13;;;;;;;;;;;;;;;9.94;100.00;97925.72;18562432;32;19956;-57
2023/05/24 23:20:17;;;;;;;;;;;;;;;9.84;100.00;97921.06;18562506;32;19957;-56
2023/05/24 23:30:20;;;;;;;;;;;;;;;9.89;100.00;97914.88;18561718;31;19998;-57
2023/05/24 23:40:22;;;;;;;;;;;;;;;9.96;100.00;97936.25;18561388;31;19971;-56
2023/05/24 23:50:26;;;;;;;;;;;;;;;9.93;100.00;97925.97;18547032;32;20336;-55
